Time;durP1;ratioP1;P1;durP2;ratioP2;P2;SDS_P1;SDS_P2;PMS_P1;PMS_P2;Temp;Humidity;BMP_temperature;BMP_pressure;BME280_temperature;BME280_humidity;BME280_pressure;Samples;Min_cycle;Max_cycle;Signal;HPM_P1;HPM_P2
2023/06/03 00:01:36;;;;;;;5.05;1.55;;;11.80;99.90;;;;;;5061337;28;20046;-76
2023/06/03 00:04:04;;;;;;;5.18;1.60;;;11.70;99.90;;;;;;5063467;28;20040;-76
2023/06/03 00:06:30;;;;;;;6.18;1.50;;;11.60;99.90;;;;;;5061612;28;20045;-76
2023/06/03 00:08:55;;;;;;;4.72;1.55;;;11.60;99.90;;;;;;5043505;28;20041;-76
2023/06/03 00:11:21;;;;;;;3.75;1.42;;;11.50;99.90;;;;;;5046611;28;20509;-76
2023/06/03 00:13:48;;;;;;;4.38;1.60;;;11.50;99.90;;;;;;5046696;28;20044;-76
2023/06/03 00:16:13;;;;;;;4.38;1.63;;;11.50;99.90;;;;;;5059473;28;20514;-76
2023/06/03 00:18:39;;;;;;;3.97;1.40;;;11.40;99.90;;;;;;5045996;28;20116;-75
2023/06/03 00:21:05;;;;;;;4.82;1.60;;;11.40;99.90;;;;;;5060842;28;20050;-76
2023/06/03 00:23:31;;;;;;;4.63;1.55;;;11.30;99.90;;;;;;5062181;28;20036;-75
2023/06/03 00:25:57;;;;;;;5.18;1.58;;;11.30;99.90;;;;;;5059535;28;20040;-76
2023/06/03 00:28:23;;;;;;;4.90;1.77;;;11.30;99.90;;;;;;5063464;28;20044;-76
2023/06/03 00:30:49;;;;;;;4.28;1.52;;;11.20;99.90;;;;;;5058017;28;20482;-76
2023/06/03 00:33:14;;;;;;;6.85;1.58;;;11.20;99.90;;;;;;5061203;28;20429;-76
2023/06/03 00:35:40;;;;;;;4.53;1.50;;;11.10;99.90;;;;;;5045215;28;20486;-75
2023/06/03 00:38:06;;;;;;;4.78;1.65;;;11.10;99.90;;;;;;5044654;28;20058;-76
2023/06/03 00:40:32;;;;;;;5.03;1.60;;;11.10;99.90;;;;;;5058043;28;20169;-75
2023/06/03 00:42:57;;;;;;;6.45;1.63;;;11.00;99.90;;;;;;5061414;28;20490;-75
2023/06/03 00:45:23;;;;;;;4.80;1.50;;;11.00;99.90;;;;;;5062924;28;20036;-76
2023/06/03 00:47:49;;;;;;;5.03;1.65;;;11.00;99.90;;;;;;5063034;28;20133;-76
2023/06/03 00:50:15;;;;;;;7.28;1.75;;;11.00;99.90;;;;;;5059807;28;20108;-76
2023/06/03 00:52:42;;;;;;;2.70;1.30;;;10.90;99.90;;;;;;5059430;28;20266;-76
2023/06/03 00:55:09;;;;;;;4.63;1.75;;;10.90;99.90;;;;;;5062900;28;20044;-76
2023/06/03 00:57:34;;;;;;;6.00;1.75;;;10.90;99.90;;;;;;5061265;28;20040;-76
2023/06/03 01:00:00;;;;;;;5.10;1.70;;;10.80;99.90;;;;;;5061956;28;20040;-76
2023/06/03 01:02:26;;;;;;;4.18;1.50;;;10.80;99.90;;;;;;5060019;28;20393;-76
2023/06/03 01:04:57;;;;;;;5.57;1.70;;;10.80;99.90;;;;;;5058104;28;20048;-76
2023/06/03 01:07:36;;;;;;;6.18;1.92;;;10.80;99.90;;;;;;5057150;28;20041;-76
2023/06/03 01:10:21;;;;;;;5.72;1.70;;;10.80;99.90;;;;;;5058904;28;20040;-75
2023/06/03 01:13:05;;;;;;;5.68;1.60;;;10.80;99.90;;;;;;5060939;28;20052;-76
2023/06/03 01:15:33;;;;;;;4.72;1.60;;;10.80;99.90;;;;;;5062774;28;20135;-75
2023/06/03 01:18:03;;;;;;;6.32;1.52;;;10.70;99.90;;;;;;5044364;28;20059;-76
2023/06/03 01:20:29;;;;;;;6.03;1.90;;;10.70;99.90;;;;;;5052900;28;20403;-76
2023/06/03 01:23:23;;;;;;;6.22;1.67;;;10.70;99.90;;;;;;5041974;28;20094;-76
2023/06/03 01:25:56;;;;;;;6.07;1.80;;;10.70;99.90;;;;;;5058617;28;20068;-76
2023/06/03 01:28:23;;;;;;;4.93;1.70;;;10.70;99.90;;;;;;5060457;28;20153;-76
2023/06/03 01:30:50;;;;;;;6.20;1.67;;;10.60;99.90;;;;;;5060912;28;20041;-76
2023/06/03 01:33:19;;;;;;;5.72;1.80;;;10.60;99.90;;;;;;5061446;28;20071;-76
2023/06/03 01:35:46;;;;;;;5.78;1.75;;;10.60;99.90;;;;;;5059644;28;20379;-76
2023/06/03 01:38:12;;;;;;;4.95;1.80;;;10.50;99.90;;;;;;5060470;28;20040;-76
2023/06/03 01:40:39;;;;;;;5.95;1.73;;;10.50;99.90;;;;;;5062328;28;20040;-76
2023/06/03 01:43:05;;;;;;;5.43;1.73;;;10.50;99.90;;;;;;5040268;28;20036;-76
2023/06/03 01:45:31;;;;;;;6.80;1.60;;;10.50;99.90;;;;;;5062237;28;20045;-76
2023/06/03 01:47:57;;;;;;;5.90;1.85;;;10.50;99.90;;;;;;5056071;28;20487;-76
2023/06/03 01:50:23;;;;;;;4.93;1.70;;;10.50;99.90;;;;;;5057633;28;20067;-76
2023/06/03 01:52:50;;;;;;;8.20;1.88;;;10.50;99.90;;;;;;5066103;28;20123;-75
2023/06/03 01:55:15;;;;;;;4.57;1.67;;;10.50;99.90;;;;;;5067417;28;20098;-76
2023/06/03 01:57:42;;;;;;;6.60;1.90;;;10.40;99.90;;;;;;5064190;28;20044;-75
2023/06/03 02:00:09;;;;;;;7.00;1.90;;;10.40;99.90;;;;;;5063858;28;21473;-76
2023/06/03 02:02:35;;;;;;;4.82;1.70;;;10.40;99.90;;;;;;5059622;28;20183;-76
2023/06/03 02:05:01;;;;;;;6.10;1.70;;;10.40;99.90;;;;;;5068229;28;20405;-75
2023/06/03 02:07:30;;;;;;;6.15;1.75;;;10.30;99.90;;;;;;5064842;28;20037;-75
2023/06/03 02:09:56;;;;;;;6.32;1.70;;;10.30;99.90;;;;;;5062651;28;20503;-75
2023/06/03 02:12:23;;;;;;;6.10;1.88;;;10.30;99.90;;;;;;5060783;28;20037;-75
2023/06/03 02:14:53;;;;;;;7.38;1.80;;;10.30;99.90;;;;;;5066105;28;20058;-75
2023/06/03 02:17:24;;;;;;;4.50;1.58;;;10.30;99.90;;;;;;5062381;28;20060;-75
2023/06/03 02:19:53;;;;;;;5.82;1.70;;;10.20;99.90;;;;;;5060750;28;20168;-76
2023/06/03 02:22:19;;;;;;;5.57;1.70;;;10.20;99.90;;;;;;5062661;28;20045;-75
2023/06/03 02:24:48;;;;;;;5.28;1.77;;;10.10;99.90;;;;;;5065250;28;20048;-75
2023/06/03 02:27:24;;;;;;;6.18;2.10;;;10.00;99.90;;;;;;5066946;28;20052;-76
2023/06/03 02:29:50;;;;;;;7.50;1.90;;;10.10;99.90;;;;;;5047146;28;20043;-76
2023/06/03 02:32:20;;;;;;;5.32;1.70;;;10.10;99.90;;;;;;5057973;28;20206;-75
2023/06/03 02:34:47;;;;;;;6.47;1.70;;;10.10;99.90;;;;;;5065646;28;20055;-76
2023/06/03 02:37:15;;;;;;;7.63;1.80;;;10.00;99.90;;;;;;5066342;28;20044;-76
2023/06/03 02:39:42;;;;;;;7.47;1.77;;;10.00;99.90;;;;;;5060949;28;20057;-75
2023/06/03 02:42:08;;;;;;;6.10;1.70;;;10.00;99.90;;;;;;5062147;28;20087;-75
2023/06/03 02:44:34;;;;;;;4.45;1.70;;;10.00;99.90;;;;;;5059521;28;20033;-76
2023/06/03 02:47:00;;;;;;;5.68;1.98;;;10.00;99.90;;;;;;5065859;28;20451;-75
2023/06/03 02:49:25;;;;;;;4.25;1.80;;;10.00;99.90;;;;;;5049158;28;20068;-75
2023/06/03 02:51:51;;;;;;;5.80;1.75;;;9.90;99.90;;;;;;5063000;28;20473;-76
2023/06/03 02:54:17;;;;;;;6.47;1.85;;;9.90;99.90;;;;;;5060777;28;20052;-76
2023/06/03 02:56:43;;;;;;;6.57;1.88;;;9.90;99.90;;;;;;5063431;28;20421;-76
2023/06/03 02:59:08;;;;;;;5.30;1.73;;;9.90;99.90;;;;;;5044743;28;20110;-75
2023/06/03 03:01:35;;;;;;;4.45;1.60;;;9.80;99.90;;;;;;5062327;28;20136;-75
2023/06/03 03:04:01;;;;;;;7.93;1.80;;;9.80;99.90;;;;;;5060103;28;20063;-75
2023/06/03 03:06:27;;;;;;;5.65;1.80;;;9.80;99.90;;;;;;5062040;28;20397;-76
2023/06/03 03:08:53;;;;;;;5.45;1.80;;;9.80;99.90;;;;;;5064636;28;20496;-75
2023/06/03 03:11:19;;;;;;;5.47;1.70;;;9.80;99.90;;;;;;5063684;28;20718;-75
2023/06/03 03:13:45;;;;;;;6.90;1.88;;;9.70;99.90;;;;;;5064255;28;20040;-75
2023/06/03 03:16:12;;;;;;;6.13;1.75;;;9.70;99.90;;;;;;5061229;28;20127;-75
2023/06/03 03:18:39;;;;;;;7.47;1.63;;;9.70;99.90;;;;;;5062345;28;20036;-76
2023/06/03 03:21:05;;;;;;;6.85;1.90;;;9.60;99.90;;;;;;5063125;28;20032;-75
2023/06/03 03:23:32;;;;;;;6.50;1.77;;;9.60;99.90;;;;;;5064781;28;20438;-75
2023/06/03 03:26:00;;;;;;;7.18;2.10;;;9.60;99.90;;;;;;5059740;28;20037;-76
2023/06/03 03:28:26;;;;;;;3.97;1.70;;;9.60;99.90;;;;;;5057929;28;20041;-76
2023/06/03 03:30:55;;;;;;;6.95;1.80;;;9.60;99.90;;;;;;5061510;28;20043;-76
2023/06/03 03:33:22;;;;;;;7.07;1.85;;;9.60;99.90;;;;;;5064317;28;20060;-76
2023/06/03 03:35:49;;;;;;;4.57;1.70;;;9.60;99.90;;;;;;5060859;28;20045;-76
2023/06/03 03:38:15;;;;;;;7.10;1.77;;;9.60;99.90;;;;;;5060769;28;20474;-76
2023/06/03 03:40:41;;;;;;;6.97;1.73;;;9.60;99.90;;;;;;5062900;28;20143;-76
2023/06/03 03:43:19;;;;;;;8.55;2.03;;;9.60;99.90;;;;;;5065137;28;20109;-76
2023/06/03 03:45:45;;;;;;;6.40;2.03;;;9.60;99.90;;;;;;5057348;28;20123;-75
2023/06/03 03:48:16;;;;;;;4.93;1.65;;;9.60;99.90;;;;;;5059960;28;20052;-76
2023/06/03 03:50:46;;;;;;;6.63;1.80;;;9.60;99.90;;;;;;5045686;28;20121;-76
2023/06/03 03:53:14;;;;;;;6.72;2.05;;;9.60;99.90;;;;;;5049016;28;20037;-76
2023/06/03 03:55:50;;;;;;;8.35;2.00;;;9.60;99.90;;;;;;5061286;28;20059;-76
2023/06/03 03:58:35;;;;;;;6.65;1.80;;;9.60;99.90;;;;;;5060049;28;20045;-76
2023/06/03 04:01:17;;;;;;;5.45;1.80;;;9.70;99.90;;;;;;5059213;28;20057;-76
2023/06/03 04:03:47;;;;;;;5.83;1.73;;;9.70;99.90;;;;;;5064846;28;20067;-76
2023/06/03 04:06:37;;;;;;;7.80;1.90;;;9.80;99.90;;;;;;5061469;28;20035;-76
2023/06/03 04:09:04;;;;;;;9.95;2.05;;;9.90;99.90;;;;;;5058858;28;20044;-76
2023/06/03 04:11:37;;;;;;;5.47;1.92;;;9.90;99.90;;;;;;5058014;28;20830;-76
2023/06/03 04:14:05;;;;;;;6.88;1.88;;;10.00;99.90;;;;;;5062409;28;20478;-76
2023/06/03 04:16:46;;;;;;;6.80;1.77;;;10.10;99.90;;;;;;5059834;28;20052;-76
2023/06/03 04:19:36;;;;;;;6.15;1.98;;;10.10;99.90;;;;;;5060001;28;20101;-76
2023/06/03 04:22:05;;;;;;;6.55;2.13;;;10.10;99.90;;;;;;5059903;28;20044;-76
2023/06/03 04:24:33;;;;;;;8.00;1.88;;;10.10;99.90;;;;;;5061208;28;20036;-76
2023/06/03 04:26:59;;;;;;;6.38;1.88;;;10.20;99.90;;;;;;5063154;28;20048;-76
2023/06/03 04:29:25;;;;;;;7.00;2.00;;;10.20;99.90;;;;;;5061134;28;20092;-76
2023/06/03 04:31:51;;;;;;;6.85;1.60;;;10.30;99.90;;;;;;5061640;28;20056;-76
2023/06/03 04:34:16;;;;;;;6.45;2.00;;;10.40;99.90;;;;;;5060795;28;20059;-75
2023/06/03 04:36:42;;;;;;;7.68;1.80;;;10.40;99.90;;;;;;5060804;28;20084;-76
2023/06/03 04:39:11;;;;;;;6.85;1.95;;;10.50;99.90;;;;;;5063987;28;20041;-76
2023/06/03 04:41:38;;;;;;;6.72;1.88;;;10.60;99.90;;;;;;5061000;28;20032;-75
2023/06/03 04:44:04;;;;;;;5.22;1.80;;;10.70;99.90;;;;;;5063840;28;20040;-75
2023/06/03 04:46:31;;;;;;;6.38;1.98;;;10.80;99.90;;;;;;5054583;28;20078;-75
2023/06/03 04:48:57;;;;;;;6.35;2.00;;;10.90;99.90;;;;;;5063591;28;20040;-75
2023/06/03 04:51:27;;;;;;;5.72;2.00;;;11.00;99.90;;;;;;5062108;28;20036;-76
2023/06/03 04:53:57;;;;;;;6.43;1.90;;;11.10;99.90;;;;;;5059517;28;20179;-76
2023/06/03 04:56:29;;;;;;;6.53;2.10;;;11.10;99.90;;;;;;5056539;28;20089;-76
2023/06/03 04:59:00;;;;;;;6.47;2.00;;;11.30;99.90;;;;;;5064733;28;20040;-75
2023/06/03 05:01:26;;;;;;;5.32;1.85;;;11.30;99.90;;;;;;5056265;28;20074;-75
2023/06/03 05:03:53;;;;;;;10.93;2.20;;;11.40;99.90;;;;;;5042564;28;20041;-76
2023/06/03 05:06:19;;;;;;;7.97;2.22;;;11.50;99.90;;;;;;5057256;28;20040;-76
2023/06/03 05:08:49;;;;;;;7.60;2.10;;;11.50;99.90;;;;;;5058694;28;20063;-75
2023/06/03 05:11:16;;;;;;;8.80;1.83;;;11.60;99.90;;;;;;5054154;28;20379;-75
2023/06/03 05:13:42;;;;;;;6.65;2.00;;;11.80;99.90;;;;;;5062717;28;20052;-75
2023/06/03 05:16:08;;;;;;;6.55;1.88;;;11.90;99.90;;;;;;5038240;28;20514;-76
2023/06/03 05:18:35;;;;;;;6.03;1.90;;;12.00;99.90;;;;;;5059695;28;20036;-76
2023/06/03 05:21:02;;;;;;;8.25;2.20;;;12.10;99.90;;;;;;5056941;28;20087;-76
2023/06/03 05:23:28;;;;;;;7.30;1.90;;;12.10;99.90;;;;;;5060597;28;20162;-76
2023/06/03 05:25:53;;;;;;;6.07;1.90;;;12.20;99.90;;;;;;5060207;28;20064;-76
2023/06/03 05:28:19;;;;;;;6.40;1.90;;;12.20;99.90;;;;;;5055031;28;20383;-76
2023/06/03 05:30:45;;;;;;;7.53;2.03;;;12.20;99.90;;;;;;5039948;28;20045;-76
2023/06/03 05:33:28;;;;;;;7.35;2.00;;;12.30;99.90;;;;;;5057844;28;20052;-76
2023/06/03 05:35:54;;;;;;;6.78;2.10;;;12.40;99.90;;;;;;5058492;28;20041;-76
2023/06/03 05:38:20;;;;;;;6.20;1.90;;;12.50;99.90;;;;;;5055675;28;20409;-76
2023/06/03 05:40:50;;;;;;;7.43;1.80;;;12.60;99.90;;;;;;5059630;28;20607;-76
2023/06/03 05:43:16;;;;;;;8.20;1.90;;;12.80;99.90;;;;;;5061778;28;20101;-76
2023/06/03 05:45:43;;;;;;;7.93;2.00;;;12.80;99.90;;;;;;5029376;28;20389;-76
2023/06/03 05:48:09;;;;;;;6.03;1.92;;;12.80;99.90;;;;;;5055016;28;20192;-76
2023/06/03 05:50:37;;;;;;;6.32;1.77;;;12.90;99.90;;;;;;5057915;28;20036;-76
2023/06/03 05:53:03;;;;;;;5.28;1.83;;;13.00;99.90;;;;;;5059430;28;20561;-76
2023/06/03 05:55:29;;;;;;;5.55;1.85;;;13.10;99.90;;;;;;5040230;28;20029;-75
2023/06/03 05:57:55;;;;;;;10.45;1.90;;;13.20;99.90;;;;;;5060092;28;20048;-75
2023/06/03 06:00:21;;;;;;;8.23;2.00;;;13.20;99.90;;;;;;5037579;28;20110;-75
2023/06/03 06:02:47;;;;;;;5.95;1.83;;;13.20;99.90;;;;;;5059698;28;20041;-75
2023/06/03 06:05:14;;;;;;;5.43;1.90;;;13.30;99.90;;;;;;5040166;28;20068;-75
2023/06/03 06:07:40;;;;;;;5.57;1.90;;;13.40;99.90;;;;;;5058002;28;20136;-75
2023/06/03 06:10:06;;;;;;;6.88;2.03;;;13.50;99.90;;;;;;5062753;28;20044;-75
2023/06/03 06:12:32;;;;;;;5.88;1.80;;;13.70;99.90;;;;;;5066095;28;20044;-75
2023/06/03 06:14:57;;;;;;;6.90;2.00;;;13.80;99.90;;;;;;5042987;28;20075;-75
2023/06/03 06:17:23;;;;;;;5.47;1.70;;;12.70;99.90;;;;;;5059758;28;20045;-75
2023/06/03 06:19:49;;;;;;;6.65;2.15;;;14.00;99.90;;;;;;5062416;28;20063;-75
2023/06/03 06:22:15;;;;;;;3.97;1.60;;;14.00;99.90;;;;;;5065247;28;20055;-75
2023/06/03 06:24:42;;;;;;;6.00;1.63;;;14.10;99.90;;;;;;5062073;28;20047;-75
2023/06/03 06:27:08;;;;;;;6.63;1.85;;;14.20;99.90;;;;;;5060889;28;20688;-75
2023/06/03 06:29:34;;;;;;;5.35;1.88;;;14.30;99.90;;;;;;5057091;28;20044;-75
2023/06/03 06:32:00;;;;;;;5.45;1.83;;;14.40;99.90;;;;;;5032006;28;20056;-76
2023/06/03 06:34:29;;;;;;;6.90;1.70;;;14.40;99.90;;;;;;5047941;28;20136;-75
2023/06/03 06:36:56;;;;;;;6.45;1.77;;;14.50;99.90;;;;;;5054967;28;20116;-75
2023/06/03 06:39:25;;;;;;;6.55;1.90;;;14.60;99.90;;;;;;5066551;28;20072;-76
2023/06/03 06:41:50;;;;;;;6.70;1.90;;;14.70;99.90;;;;;;5064689;28;20052;-75
2023/06/03 06:44:16;;;;;;;4.80;1.60;;;14.90;99.90;;;;;;5055531;28;20047;-75
2023/06/03 06:46:42;;;;;;;6.93;1.70;;;15.00;99.90;;;;;;5065748;28;20147;-75
2023/06/03 06:49:10;;;;;;;5.13;1.63;;;15.10;99.90;;;;;;5033939;28;20048;-76
2023/06/03 06:51:36;;;;;;;5.82;1.75;;;15.30;99.90;;;;;;5063389;28;20041;-76
2023/06/03 06:54:01;;;;;;;6.22;1.88;;;15.50;99.90;;;;;;5048262;28;20036;-76
2023/06/03 06:56:27;;;;;;;5.00;1.80;;;15.60;99.90;;;;;;5052751;28;20051;-76
2023/06/03 06:58:53;;;;;;;6.72;1.88;;;15.80;99.90;;;;;;5045434;28;20039;-76
2023/06/03 07:01:19;;;;;;;6.43;2.00;;;16.00;99.90;;;;;;5058324;28;20418;-75
2023/06/03 07:03:44;;;;;;;5.82;1.88;;;16.10;99.90;;;;;;5061335;28;20032;-75
2023/06/03 07:06:10;;;;;;;7.38;1.85;;;16.20;99.90;;;;;;5056167;28;20455;-76
2023/06/03 07:08:36;;;;;;;5.05;1.60;;;16.40;99.90;;;;;;5060558;28;20057;-76
2023/06/03 07:11:03;;;;;;;5.28;1.75;;;16.60;99.90;;;;;;5058394;28;20116;-76
2023/06/03 07:13:30;;;;;;;4.38;1.60;;;16.60;99.90;;;;;;5053641;28;20083;-76
2023/06/03 07:15:56;;;;;;;4.45;1.60;;;16.80;99.90;;;;;;5050281;28;20610;-76
2023/06/03 07:18:21;;;;;;;4.93;1.60;;;16.80;99.90;;;;;;5059979;28;20315;-75
2023/06/03 07:20:48;;;;;;;6.40;1.70;;;17.10;99.90;;;;;;5060609;28;20045;-75
2023/06/03 07:23:18;;;;;;;4.72;1.70;;;17.20;99.90;;;;;;5070168;28;20048;-76
2023/06/03 07:25:47;;;;;;;4.70;1.60;;;17.30;99.90;;;;;;5062095;28;20040;-76
2023/06/03 07:28:16;;;;;;;5.68;1.70;;;17.30;99.90;;;;;;5056190;28;20600;-76
2023/06/03 07:30:43;;;;;;;4.30;1.60;;;17.60;99.90;;;;;;5059522;28;20434;-76
2023/06/03 07:33:29;;;;;;;3.70;1.42;;;17.50;99.90;;;;;;5051238;28;20051;-76
2023/06/03 07:35:58;;;;;;;4.35;1.35;;;17.80;99.90;;;;;;5055438;28;20051;-75
2023/06/03 07:38:42;;;;;;;4.07;1.40;;;18.00;99.90;;;;;;5053659;28;20055;-75
2023/06/03 07:41:09;;;;;;;5.75;2.05;;;18.30;99.90;;;;;;5060226;28;20071;-75
2023/06/03 07:43:38;;;;;;;3.95;1.73;;;18.40;99.90;;;;;;5032803;28;20569;-76
2023/06/03 07:46:05;;;;;;;6.00;1.65;;;18.20;99.90;;;;;;5033086;28;20585;-76
2023/06/03 07:48:32;;;;;;;5.03;1.50;;;18.00;99.90;;;;;;5048507;28;20041;-75
2023/06/03 07:50:58;;;;;;;5.47;1.70;;;17.80;99.90;;;;;;5057043;28;20044;-76
2023/06/03 07:53:24;;;;;;;3.30;1.35;;;17.70;99.90;;;;;;5041975;28;20049;-75
2023/06/03 07:55:50;;;;;;;5.50;1.70;;;17.50;99.90;;;;;;5069760;28;20047;-75
2023/06/03 07:58:16;;;;;;;4.82;1.55;;;17.30;99.90;;;;;;5064028;28;20207;-76
2023/06/03 08:00:44;;;;;;;5.10;1.42;;;17.20;99.90;;;;;;5053081;28;20044;-76
2023/06/03 08:03:22;;;;;;;5.00;1.40;;;17.10;99.90;;;;;;5057824;28;20361;-75
2023/06/03 08:05:49;;;;;;;3.78;1.25;;;17.00;99.90;;;;;;5056026;28;20488;-75
2023/06/03 08:08:17;;;;;;;5.32;1.50;;;16.90;99.90;;;;;;5060139;28;20866;-75
2023/06/03 08:10:46;;;;;;;5.03;1.45;;;16.80;99.90;;;;;;5045977;28;20276;-75
2023/06/03 08:13:12;;;;;;;8.73;1.63;;;16.80;99.90;;;;;;5056385;28;20045;-75
2023/06/03 08:15:40;;;;;;;3.90;1.40;;;16.70;99.90;;;;;;5068489;28;20036;-75
2023/06/03 08:18:07;;;;;;;5.68;1.40;;;16.70;99.90;;;;;;5056630;28;20060;-75
2023/06/03 08:20:34;;;;;;;3.28;1.30;;;16.70;99.90;;;;;;5058767;28;20510;-75
2023/06/03 08:23:00;;;;;;;4.32;1.27;;;16.60;99.90;;;;;;5048949;28;20060;-75
2023/06/03 08:25:26;;;;;;;4.20;1.40;;;16.60;99.90;;;;;;5049925;28;20045;-75
2023/06/03 08:27:52;;;;;;;3.22;1.42;;;16.60;99.90;;;;;;5067355;28;20040;-75
2023/06/03 08:30:20;;;;;;;5.65;1.42;;;16.70;99.90;;;;;;5062584;28;20032;-75
2023/06/03 08:32:47;;;;;;;4.20;1.45;;;16.80;99.90;;;;;;5062008;28;20516;-75
2023/06/03 08:35:15;;;;;;;3.28;1.30;;;17.00;99.90;;;;;;5067237;28;20051;-74
2023/06/03 08:37:42;;;;;;;3.72;1.45;;;17.10;99.90;;;;;;5065268;28;20383;-75
2023/06/03 08:40:13;;;;;;;4.50;1.50;;;17.30;99.90;;;;;;5065162;28;20398;-75
2023/06/03 08:42:46;;;;;;;6.53;1.60;;;17.50;99.90;;;;;;5058111;28;20048;-75
2023/06/03 08:45:17;;;;;;;3.38;1.33;;;17.70;99.90;;;;;;5060887;28;20436;-75
2023/06/03 08:48:11;;;;;;;4.68;1.48;;;17.90;99.90;;;;;;5067177;28;20128;-75
2023/06/03 08:50:37;;;;;;;3.42;1.50;;;17.90;99.90;;;;;;5048819;28;20075;-76
2023/06/03 08:53:08;;;;;;;2.90;1.10;;;17.90;99.90;;;;;;5057957;28;20040;-75
2023/06/03 08:55:39;;;;;;;5.47;1.30;;;18.00;99.90;;;;;;5058786;28;20437;-75
2023/06/03 08:58:25;;;;;;;3.55;1.40;;;18.20;99.90;;;;;;5050866;28;20071;-75
2023/06/03 09:01:01;;;;;;;3.42;1.30;;;18.40;99.90;;;;;;5047789;28;20049;-75
2023/06/03 09:03:27;;;;;;;2.33;1.10;;;18.50;99.90;;;;;;5062062;28;20114;-75
2023/06/03 09:05:54;;;;;;;4.95;1.48;;;18.50;99.90;;;;;;5062806;28;20046;-75
2023/06/03 09:08:20;;;;;;;2.78;1.27;;;18.60;99.90;;;;;;5059453;28;20045;-75
2023/06/03 09:10:47;;;;;;;4.38;1.50;;;18.70;99.90;;;;;;5033457;28;20041;-76
2023/06/03 09:13:17;;;;;;;4.80;1.40;;;18.80;99.90;;;;;;5047956;28;20490;-75
2023/06/03 09:15:43;;;;;;;6.68;1.60;;;18.80;99.30;;;;;;5058895;28;20041;-76
2023/06/03 09:18:09;;;;;;;3.30;1.38;;;18.90;99.10;;;;;;5049148;28;20106;-76
2023/06/03 09:20:36;;;;;;;4.88;1.48;;;18.80;98.20;;;;;;5031476;28;20494;-75
2023/06/03 09:23:02;;;;;;;7.03;1.95;;;18.90;98.40;;;;;;5051125;28;20044;-76
2023/06/03 09:25:28;;;;;;;4.25;1.30;;;18.90;98.00;;;;;;5055748;28;20044;-76
2023/06/03 09:27:54;;;;;;;4.38;1.40;;;18.90;97.80;;;;;;5047530;28;20098;-75
2023/06/03 09:30:20;;;;;;;4.50;1.48;;;19.00;98.20;;;;;;5047578;28;20041;-75
2023/06/03 09:32:46;;;;;;;4.45;1.50;;;19.10;98.70;;;;;;5049151;28;20152;-75
2023/06/03 09:35:13;;;;;;;8.25;1.40;;;19.20;98.20;;;;;;5052707;28;20620;-75
2023/06/03 09:37:38;;;;;;;3.58;1.33;;;19.20;98.30;;;;;;5054536;28;20041;-75
2023/06/03 09:40:23;;;;;;;5.57;1.60;;;19.30;98.20;;;;;;5054519;28;20053;-75
2023/06/03 09:42:48;;;;;;;2.97;1.17;;;19.30;97.40;;;;;;5033670;28;20539;-75
2023/06/03 09:45:30;;;;;;;3.63;1.35;;;19.40;97.70;;;;;;5030950;28;20124;-75
2023/06/03 09:47:58;;;;;;;3.42;1.30;;;19.40;97.30;;;;;;5057539;28;20052;-75
2023/06/03 09:50:26;;;;;;;5.13;1.52;;;19.40;97.40;;;;;;5047569;28;20127;-75
2023/06/03 09:52:51;;;;;;;3.58;1.30;;;19.50;97.90;;;;;;5054079;28;20294;-75
2023/06/03 09:55:18;;;;;;;3.63;1.40;;;19.80;98.00;;;;;;5050116;28;20541;-78
2023/06/03 09:58:06;;;;;;;5.32;1.50;;;19.50;97.90;;;;;;5030112;28;20156;-76
2023/06/03 10:00:49;;;;;;;3.58;1.40;;;19.70;97.20;;;;;;5056990;28;20086;-77
2023/06/03 10:03:18;;;;;;;4.57;1.50;;;19.70;96.80;;;;;;5052799;28;20048;-78
2023/06/03 10:05:44;;;;;;;4.35;1.40;;;19.70;96.90;;;;;;5056116;28;20045;-76
2023/06/03 10:08:10;;;;;;;5.32;1.50;;;19.60;97.10;;;;;;5039721;28;20040;-76
2023/06/03 10:10:56;;;;;;;5.40;1.70;;;19.60;96.80;;;;;;5057750;28;20044;-79
2023/06/03 10:13:23;;;;;;;3.65;1.40;;;19.50;95.70;;;;;;5059888;28;20032;-77
2023/06/03 10:15:51;;;;;;;4.20;1.45;;;19.50;96.40;;;;;;5064875;28;20044;-77
2023/06/03 10:18:17;;;;;;;5.68;1.50;;;19.60;96.30;;;;;;5058358;28;20045;-76
2023/06/03 10:20:43;;;;;;;6.38;1.45;;;19.60;96.40;;;;;;5059487;28;20123;-76
2023/06/03 10:23:10;;;;;;;3.67;1.50;;;19.80;96.50;;;;;;5058553;28;20473;-78
2023/06/03 10:25:42;;;;;;;5.63;1.52;;;19.90;96.60;;;;;;5058679;28;20526;-77
2023/06/03 10:28:10;;;;;;;5.23;1.40;;;19.90;96.00;;;;;;5056724;28;20162;-76
2023/06/03 10:30:38;;;;;;;4.00;1.50;;;19.90;96.00;;;;;;5059648;28;20029;-77
2023/06/03 10:33:06;;;;;;;6.47;1.65;;;20.00;96.20;;;;;;5061422;28;20560;-78
2023/06/03 10:35:36;;;;;;;4.85;1.50;;;20.10;96.30;;;;;;5064756;28;20498;-80
2023/06/03 10:38:04;;;;;;;3.35;1.30;;;20.10;95.70;;;;;;5060939;28;20511;-78
2023/06/03 10:40:30;;;;;;;4.18;1.40;;;20.10;95.60;;;;;;5057790;28;20040;-78
2023/06/03 10:42:56;;;;;;;5.65;1.50;;;20.10;95.60;;;;;;5061263;28;20085;-79
2023/06/03 10:45:23;;;;;;;3.97;1.13;;;20.10;95.60;;;;;;5063514;28;20056;-77
2023/06/03 10:47:53;;;;;;;5.65;1.70;;;20.30;95.90;;;;;;5061685;28;20141;-77
2023/06/03 10:50:32;;;;;;;3.83;1.40;;;20.30;95.90;;;;;;5056566;28;20049;-78
2023/06/03 10:53:16;;;;;;;5.70;1.58;;;20.30;95.70;;;;;;5063914;28;20056;-78
2023/06/03 10:56:26;;;;;;;3.72;1.40;;;20.30;94.80;;;;;;5060705;28;21176;-78
2023/06/03 10:59:09;;;;;;;5.38;1.40;;;20.30;94.80;;;;;;5041520;28;20124;-81
2023/06/03 11:02:01;;;;;;;5.50;1.60;;;20.30;95.10;;;;;;5062106;28;20119;-80
2023/06/03 11:04:32;;;;;;;4.88;1.40;;;20.20;93.90;;;;;;5060401;28;20048;-81
2023/06/03 11:06:58;;;;;;;4.82;1.35;;;20.20;94.30;;;;;;5060881;28;20442;-80
2023/06/03 11:09:34;;;;;;;4.07;1.40;;;20.10;94.20;;;;;;5055840;28;20037;-81
2023/06/03 11:12:06;;;;;;;5.22;1.40;;;20.20;94.30;;;;;;5064270;28;20148;-77
2023/06/03 11:14:41;;;;;;;4.45;1.48;;;20.20;94.00;;;;;;5058046;28;20382;-78
2023/06/03 11:17:09;;;;;;;5.55;1.50;;;20.40;94.60;;;;;;5060960;28;20045;-79
2023/06/03 11:19:36;;;;;;;3.92;1.40;;;20.30;94.00;;;;;;5054921;28;20075;-78
2023/06/03 11:22:07;;;;;;;6.18;1.70;;;20.40;94.00;;;;;;5057294;28;20093;-78
2023/06/03 11:24:42;;;;;;;5.45;1.60;;;20.40;93.80;;;;;;5060601;28;20114;-79
2023/06/03 11:29:58;;;;;;;6.50;1.52;;;20.40;93.50;;;;;;5061950;28;20106;-77
2023/06/03 11:32:28;;;;;;;5.30;1.40;;;20.40;92.10;;;;;;5045577;28;20045;-77
2023/06/03 11:34:59;;;;;;;7.38;1.67;;;20.40;93.00;;;;;;5065671;28;20040;-77
2023/06/03 11:37:41;;;;;;;4.95;1.50;;;20.70;93.10;;;;;;5062781;28;20583;-77
2023/06/03 11:40:08;;;;;;;8.10;1.50;;;20.70;93.00;;;;;;5062698;28;20032;-77
2023/06/03 11:42:46;;;;;;;6.00;1.50;;;20.60;92.50;;;;;;5059339;28;20064;-77
2023/06/03 11:45:21;;;;;;;4.45;1.42;;;20.70;92.20;;;;;;5060815;28;20032;-78
2023/06/03 11:47:56;;;;;;;2.70;1.30;;;20.70;92.30;;;;;;5065992;28;20068;-77
2023/06/03 11:50:29;;;;;;;3.13;1.13;;;20.70;92.00;;;;;;5060954;28;20044;-78
2023/06/03 11:52:55;;;;;;;5.45;1.65;;;20.80;92.10;;;;;;5062736;28;20111;-77
2023/06/03 11:55:41;;;;;;;4.45;1.50;;;20.80;92.20;;;;;;5059919;28;20119;-77
2023/06/03 11:58:09;;;;;;;3.88;1.33;;;20.90;92.10;;;;;;5063241;28;20113;-78
2023/06/03 12:00:35;;;;;;;5.90;1.42;;;20.90;91.70;;;;;;5039987;28;20106;-77
2023/06/03 12:03:00;;;;;;;4.10;1.33;;;21.00;92.20;;;;;;5047462;28;20048;-77
2023/06/03 12:05:27;;;;;;;7.68;1.70;;;21.10;92.50;;;;;;5061882;28;20109;-77
2023/06/03 12:07:59;;;;;;;4.35;1.50;;;21.10;92.10;;;;;;5059806;28;20110;-77
2023/06/03 12:10:25;;;;;;;4.15;1.35;;;21.20;92.20;;;;;;5057074;28;20094;-78
2023/06/03 12:12:56;;;;;;;3.80;1.50;;;21.10;92.20;;;;;;5063502;28;20036;-79
2023/06/03 12:15:23;;;;;;;5.70;1.60;;;21.10;92.60;;;;;;5057937;28;20049;-80
2023/06/03 12:17:50;;;;;;;4.88;1.40;;;21.10;92.70;;;;;;5060604;28;20045;-79
2023/06/03 12:20:26;;;;;;;4.93;1.33;;;21.20;92.90;;;;;;5059601;28;20125;-79
2023/06/03 12:23:02;;;;;;;6.20;1.60;;;21.20;92.70;;;;;;5061238;28;20029;-78
2023/06/03 12:25:28;;;;;;;5.55;1.55;;;21.10;92.50;;;;;;5057727;28;20137;-79
2023/06/03 12:27:56;;;;;;;3.92;1.42;;;21.00;92.70;;;;;;5061020;28;20068;-78
2023/06/03 12:30:31;;;;;;;8.20;1.88;;;21.00;92.80;;;;;;5060824;28;20036;-78
2023/06/03 12:32:58;;;;;;;3.95;1.30;;;21.00;92.80;;;;;;5055442;28;20518;-80
2023/06/03 12:35:27;;;;;;;3.38;1.40;;;21.00;92.80;;;;;;5056396;28;20036;-79
2023/06/03 12:38:07;;;;;;;8.07;1.40;;;21.00;92.40;;;;;;5059894;28;20036;-80
2023/06/03 12:40:34;;;;;;;5.22;1.30;;;21.00;92.20;;;;;;5058275;28;20040;-79
2023/06/03 12:43:00;;;;;;;4.88;1.38;;;20.80;92.30;;;;;;5060690;28;20051;-81
2023/06/03 12:45:26;;;;;;;5.32;1.50;;;20.90;92.50;;;;;;5053131;28;20050;-82
2023/06/03 12:47:55;;;;;;;4.57;1.33;;;20.80;91.90;;;;;;5036510;28;20474;-83
2023/06/03 12:50:23;;;;;;;4.63;1.38;;;20.90;92.10;;;;;;5048949;28;20037;-82
2023/06/03 12:52:49;;;;;;;4.70;1.25;;;20.90;92.80;;;;;;5041144;28;20451;-80
2023/06/03 12:55:17;;;;;;;8.95;1.50;;;21.00;92.60;;;;;;5058663;28;20448;-80
2023/06/03 12:57:48;;;;;;;4.95;1.45;;;21.00;92.80;;;;;;5058640;28;20080;-81
2023/06/03 13:00:21;;;;;;;4.82;1.60;;;21.10;92.20;;;;;;5055783;28;20049;-80